Estació municipal de St. Julià de Vilatorta (Osona, E.N.Guilleries-Savassona)

Consulta les dades en temps real de l'estació municipal de St. Julià de Vilatorta





Hora UTC 05:30
Temperatura 17.2 ºC
Subsòl 10 cm 13.3 ºC
Humitat 95.3 %
Pressió 1020.8 hPa
Pluja 0.0 mm
Velocitat vent 2.7 km/h
Direcció vent E
Radiació solar 7.1 W/m²
Fuel 11.7 %

Webcam

Dades diàries 2026-09-04



Hora UTC (hivern +1h; estiu +2h)
Temperatura (ºC) Humitat (%) Pressió (hPa) Velocitat vent (km/h) Precipitació (mm) Fuel (%) Radiació solar (W/m²)
Hora UTC Aire Subsòl 10 cm Humitat Pressió Vel. Dir. Vel. Max Dir. Intent. màx 5 min. Fuel Rad. Sol.
00:05 19.7 15.9 86.1 1022.3 3.0 ESE 3.0 ESE 0.0 8.2 0.5
00:10 19.7 15.8 86.1 1022.3 3.1 ESE 5.0 E 0.0 8.1 0.4
00:15 19.6 15.7 85.8 1022.2 2.3 SE 3.5 SE 0.0 8.3 0.2
00:20 19.4 15.8 85.7 1022.2 1.5 ESE 2.3 ESE 0.0 8.3 0.2
00:25 19.4 15.8 87.1 1022.2 1.6 ESE 3.1 E 0.0 8.4 0.2
00:30 19.2 15.7 87.1 1022.2 1.4 ESE 3.2 ESE 0.0 8.4 0.0
00:35 19.2 15.5 88.2 1022.1 2.4 SE 3.4 ESE 0.0 8.4 0.4
00:40 19.3 15.4 87.6 1022.1 1.6 SE 3.8 ESE 0.0 8.5 0.6
00:45 19.2 15.4 87.5 1022.1 1.4 SE 3.1 ESE 0.0 8.6 0.2
00:50 19.1 15.4 88.1 1022.0 2.6 SE 4.2 SE 0.0 8.1 0.6
00:55 19.1 15.4 87.6 1022.0 1.4 ESE 2.0 SE 0.0 8.7 0.2
01:00 19.0 15.4 88.1 1022.0 1.5 SE 2.6 SE 0.0 8.7 0.2
01:05 19.0 15.3 89.5 1021.9 1.5 SE 2.3 SE 0.0 8.8 0.6
01:10 18.9 15.2 89.5 1021.8 1.9 SE 3.4 SE 0.0 8.8 0.2
01:15 19.0 15.1 89.3 1021.8 1.9 ESE 2.7 ESE 0.0 8.9 0.3
01:20 18.9 15.0 89.8 1021.8 1.9 SE 3.0 SE 0.0 8.9 0.3
01:25 19.0 15.0 89.5 1021.8 1.6 SE 2.5 SSE 0.0 9.0 0.2
01:30 18.9 15.0 89.6 1021.8 0.5 ESE 1.0 E 0.0 9.0 0.3
01:35 18.8 15.0 90.8 1021.7 1.5 ESE 2.8 E 0.0 9.1 0.7
01:40 18.8 15.0 90.3 1021.8 1.7 SE 2.7 ESE 0.0 9.2 0.1
01:45 18.5 15.2 89.5 1021.7 1.3 SSE 2.3 SSE 0.0 9.2 0.0
01:50 18.3 15.1 90.1 1021.7 1.7 ESE 2.5 E 0.0 9.3 0.1
01:55 18.4 15.0 91.6 1021.7 1.6 SE 2.6 SE 0.0 9.1 0.4
02:00 18.4 14.9 91.9 1021.6 1.7 SE 2.7 ESE 0.0 9.3 0.5
02:05 18.2 15.0 91.3 1021.6 1.2 SE 2.0 ESE 0.0 9.4 0.1
02:10 18.0 14.9 91.6 1021.6 1.4 SSE 3.2 SE 0.0 9.4 0.2
02:15 17.9 14.8 92.0 1021.6 1.4 SE 2.6 SE 0.0 9.5 0.3
02:20 17.8 14.7 92.3 1021.6 1.5 SE 2.6 SSE 0.0 9.0 0.3
02:25 17.9 14.6 93.5 1021.5 1.6 ESE 2.9 SE 0.0 9.6 0.8
02:30 18.2 14.6 94.0 1021.5 1.5 SE 2.2 SE 0.0 9.7 0.5
02:35 18.2 14.5 93.5 1021.5 1.2 SE 2.1 SE 0.0 9.7 0.1
02:40 18.1 14.5 93.1 1021.5 1.3 SSE 2.1 SSE 0.0 9.8 0.0
02:45 17.9 14.8 92.5 1021.5 1.8 SE 3.4 SSE 0.0 9.8 0.0
02:50 17.7 14.8 92.8 1021.5 1.3 SE 2.1 E 0.0 9.9 0.3
02:55 17.6 14.7 93.0 1021.5 1.2 ESE 1.9 ESE 0.0 9.9 0.1
03:00 17.6 14.6 93.4 1021.5 1.3 SE 2.0 SE 0.0 10.0 0.4
03:05 17.6 14.4 94.2 1021.5 0.5 SE 1.0 ESE 0.0 10.0 0.1
03:10 17.6 14.3 94.4 1021.4 1.6 ESE 2.4 ESE 0.0 10.1 0.5
03:15 17.6 14.2 94.5 1021.4 2.0 ESE 3.8 E 0.0 10.2 0.6
03:20 17.6 14.3 94.2 1021.4 1.3 S 2.2 SSW 0.0 10.2 0.1
03:25 17.4 14.3 94.0 1021.3 1.4 SE 2.4 ESE 0.0 9.9 0.0
03:30 17.4 14.3 94.8 1021.3 1.7 ESE 2.8 ESE 0.0 10.3 0.2
03:35 17.6 14.2 95.2 1021.3 1.0 SSE 1.9 SSW 0.0 10.3 0.4
03:40 17.5 14.1 94.9 1021.3 1.7 ESE 3.9 E 0.0 10.4 0.1
03:45 17.5 14.1 95.3 1021.2 2.8 ESE 4.5 E 0.0 10.5 0.3
03:50 17.4 14.2 94.7 1021.2 1.8 SSE 2.5 SSE 0.0 10.6 0.0
03:55 17.5 14.2 95.3 1021.1 3.2 E 4.6 E 0.0 10.6 0.1
04:00 17.4 14.3 94.9 1021.1 1.2 SSE 2.4 SSE 0.0 10.7 0.0
04:05 17.2 14.2 94.7 1021.1 1.2 SSE 3.3 SSE 0.0 10.7 0.1
04:10 17.1 14.5 94.9 1021.1 1.9 SE 3.6 SE 0.0 10.8 0.0
04:15 17.0 14.4 94.9 1021.0 1.4 SSE 2.6 SSE 0.0 10.8 0.0
04:20 17.0 14.2 95.5 1021.0 1.1 SE 1.8 SE 0.0 10.9 0.3
04:25 17.2 14.0 95.7 1021.0 2.6 ESE 5.4 ESE 0.0 10.9 0.3
04:30 17.2 14.0 95.8 1021.1 1.5 SE 2.8 E 0.0 11.0 0.1
04:35 17.3 13.9 96.0 1021.0 3.0 ESE 5.4 ESE 0.0 11.1 0.1
04:40 17.3 14.0 95.9 1021.0 3.5 ESE 5.1 ENE 0.0 11.1 0.0
04:45 17.4 14.1 95.5 1021.0 3.1 ESE 5.1 ESE 0.0 11.2 0.0
04:50 17.5 14.1 95.6 1020.9 3.4 ESE 5.0 ESE 0.0 10.9 0.0
04:55 17.5 14.1 95.0 1020.9 2.6 SE 4.3 ESE 0.0 11.3 0.0
05:00 17.5 14.1 94.8 1020.9 2.0 SE 4.8 SSE 0.0 11.3 0.0
05:05 17.4 13.9 94.7 1020.8 1.3 SE 2.1 SE 0.0 11.3 0.2
05:10 17.3 13.8 94.6 1020.9 1.0 S 1.7 SE 0.0 11.4 0.5
05:15 17.2 13.7 94.9 1020.9 0.4 ENE 0.7 NW 0.0 11.5 1.6
05:20 17.1 13.5 95.2 1020.8 0.6 ESE 1.5 ESE 0.0 11.6 3.0
05:25 17.2 13.4 95.6 1020.8 1.2 SE 2.6 E 0.0 11.6 4.9
05:30 17.2 13.3 95.3 1020.8 2.7 E 5.0 ESE 0.0 11.7 7.1
Màxima 19.7 15.9 96.0 1022.3 3.5 ESE 5.4 ESE 0.0 11.7 7.1
Mínima 17.0 13.3 85.7 1020.8 8.1
Total 0.0